Time;durP1;ratioP1;P1;durP2;ratioP2;P2;SDS_P1;SDS_P2;PMS_P1;PMS_P2;Temp;Humidity;BMP_temperature;BMP_pressure;BME280_temperature;BME280_humidity;BME280_pressure;Samples;Min_cycle;Max_cycle;Signal;HPM_P1;HPM_P2
2021/03/14 00:02:14;;;;;;;4.13;1.80;;;;;;;6.95;57.86;98626.06;4878249;28;98425;-75
2021/03/14 00:04:41;;;;;;;7.77;2.27;;;;;;;6.88;57.58;98627.22;4892289;28;97400;-78
2021/03/14 00:07:07;;;;;;;5.17;2.43;;;;;;;6.79;58.18;98610.25;4859515;28;97036;-76
2021/03/14 00:09:33;;;;;;;4.37;1.90;;;;;;;6.87;58.07;98607.28;4873440;28;97214;-76
2021/03/14 00:11:59;;;;;;;6.00;1.73;;;;;;;6.79;58.37;98602.41;4890723;28;97816;-77
2021/03/14 00:14:24;;;;;;;5.20;2.20;;;;;;;6.79;58.56;98604.19;4876221;28;100560;-75
2021/03/14 00:16:52;;;;;;;5.00;2.67;;;;;;;6.80;58.61;98603.25;4875783;28;96972;-73
2021/03/14 00:19:18;;;;;;;4.70;2.10;;;;;;;6.75;58.65;98608.69;4881677;28;97161;-73
2021/03/14 00:21:43;;;;;;;5.63;2.37;;;;;;;6.74;58.55;98609.59;4855944;28;101579;-73
2021/03/14 00:24:09;;;;;;;6.87;2.50;;;;;;;6.79;58.76;98604.19;4857552;28;101366;-73
2021/03/14 00:26:34;;;;;;;5.13;2.40;;;;;;;6.73;58.26;98599.25;4873739;28;97129;-74
2021/03/14 00:29:00;;;;;;;6.53;2.73;;;;;;;6.71;58.76;98595.88;4859272;28;97648;-73
2021/03/14 00:31:26;;;;;;;4.67;2.30;;;;;;;6.75;58.81;98607.88;4875911;28;100890;-73
2021/03/14 00:33:52;;;;;;;5.13;1.97;;;;;;;6.74;58.32;98606.16;4874174;28;101195;-73
2021/03/14 00:36:17;;;;;;;8.53;2.43;;;;;;;6.75;58.32;98595.66;4860814;28;97235;-73
2021/03/14 00:38:44;;;;;;;5.00;2.27;;;;;;;6.78;58.39;98595.53;4860514;28;96941;-74
2021/03/14 00:41:11;;;;;;;5.37;2.43;;;;;;;6.84;58.03;98590.94;4891762;28;98006;-74
2021/03/14 00:43:37;;;;;;;7.93;2.50;;;;;;;6.76;58.22;98588.69;4873269;28;98332;-73
2021/03/14 00:46:02;;;;;;;7.10;2.43;;;;;;;6.79;58.01;98592.00;4874307;28;97169;-74
2021/03/14 00:48:29;;;;;;;6.03;2.60;;;;;;;6.79;58.12;98594.59;4876638;28;96688;-73
2021/03/14 00:50:56;;;;;;;5.83;2.07;;;;;;;6.91;57.68;98597.56;4894009;28;97926;-73
2021/03/14 00:53:30;;;;;;;6.40;2.57;;;;;;;6.85;57.86;98588.25;4862494;28;97922;-73
2021/03/14 00:55:58;;;;;;;7.63;2.43;;;;;;;6.86;57.62;98592.53;4848207;28;96712;-73
2021/03/14 00:58:23;;;;;;;4.57;2.33;;;;;;;6.90;57.59;98591.50;4889181;28;96825;-73
2021/03/14 01:00:49;;;;;;;3.77;1.80;;;;;;;6.88;57.50;98579.44;4877957;28;100614;-73
2021/03/14 01:03:15;;;;;;;6.23;2.30;;;;;;;6.92;57.74;98570.53;4879493;28;100378;-73
2021/03/14 01:05:42;;;;;;;6.17;2.07;;;;;;;6.99;57.50;98571.97;4879102;28;97220;-74
2021/03/14 01:08:11;;;;;;;4.40;2.10;;;;;;;6.93;57.57;98567.88;4879796;28;96834;-73
2021/03/14 01:10:39;;;;;;;5.40;1.90;;;;;;;6.94;57.28;98574.78;4877944;28;99535;-78
2021/03/14 01:13:11;;;;;;;3.35;1.73;;;;;;;7.02;57.30;98577.03;4879841;28;100528;-73
2021/03/14 01:15:37;;;;;;;4.73;1.73;;;;;;;7.01;57.05;98576.19;4894689;28;97358;-74
2021/03/14 01:18:04;;;;;;;4.20;1.40;;;;;;;7.07;57.07;98584.63;4879068;28;96743;-73
2021/03/14 01:20:30;;;;;;;4.10;1.93;;;;;;;7.03;57.33;98592.59;4878927;28;98086;-74
2021/03/14 01:22:56;;;;;;;4.93;2.33;;;;;;;7.03;57.48;98592.59;4893626;28;98212;-74
2021/03/14 01:25:21;;;;;;;6.57;2.10;;;;;;;6.99;57.53;98587.63;4879166;28;96768;-74
2021/03/14 01:27:47;;;;;;;5.60;1.90;;;;;;;7.01;57.36;98606.63;4864242;28;97257;-74
2021/03/14 01:30:20;;;;;;;3.77;1.57;;;;;;;7.03;57.49;98604.81;4875395;28;97311;-74
2021/03/14 01:32:46;;;;;;;5.50;1.73;;;;;;;7.01;57.79;98615.34;4859090;28;98434;-74
2021/03/14 01:35:12;;;;;;;6.23;1.93;;;;;;;7.03;57.53;98605.66;4875507;28;97151;-74
2021/03/14 01:37:38;;;;;;;4.63;1.37;;;;;;;7.01;57.73;98594.47;4860277;28;97017;-74
2021/03/14 01:40:05;;;;;;;3.27;1.60;;;;;;;7.02;57.41;98593.53;4857762;28;101500;-74
2021/03/14 01:42:31;;;;;;;4.33;1.80;;;;;;;7.01;57.90;98602.28;4859822;28;99437;-74
2021/03/14 01:44:57;;;;;;;4.90;1.97;;;;;;;7.02;57.89;98601.34;4859095;28;97121;-74
2021/03/14 01:47:37;;;;;;;4.17;1.90;;;;;;;6.98;58.36;98597.22;4859786;28;96977;-74
2021/03/14 01:50:07;;;;;;;4.13;2.37;;;;;;;6.97;57.84;98595.50;4842884;28;101793;-76
2021/03/14 01:52:34;;;;;;;5.83;2.43;;;;;;;6.94;58.48;98603.47;4859862;28;101098;-75
2021/03/14 01:55:01;;;;;;;6.27;1.80;;;;;;;6.97;58.30;98587.69;4859152;28;96641;-74
2021/03/14 01:57:27;;;;;;;3.63;1.90;;;;;;;6.91;58.58;98590.56;4856526;29;96825;-74
2021/03/14 01:59:53;;;;;;;6.23;2.10;;;;;;;6.94;58.29;98594.81;4866216;28;97886;-74
2021/03/14 02:02:19;;;;;;;6.80;2.10;;;;;;;6.95;58.10;98583.44;4864194;28;97687;-74
2021/03/14 02:04:45;;;;;;;4.27;1.80;;;;;;;6.96;58.26;98590.38;4877908;28;96784;-74
2021/03/14 02:07:11;;;;;;;3.90;2.00;;;;;;;6.91;58.39;98577.53;4894672;28;96597;-74
2021/03/14 02:09:36;;;;;;;5.57;3.10;;;;;;;6.86;58.57;98587.31;4893799;28;97378;-74
2021/03/14 02:12:04;;;;;;;6.47;2.17;;;;;;;6.89;58.41;98587.19;4876045;28;97357;-75
2021/03/14 02:14:30;;;;;;;4.33;2.10;;;;;;;6.93;58.47;98575.69;4874734;28;97122;-74
2021/03/14 02:16:58;;;;;;;7.10;2.77;;;;;;;6.90;58.42;98580.22;4858690;28;97142;-74
2021/03/14 02:19:29;;;;;;;3.63;1.97;;;;;;;6.95;57.86;98576.50;4858734;28;101980;-74
2021/03/14 02:21:58;;;;;;;7.50;2.88;;;;;;;6.90;58.41;98580.22;4858062;28;99841;-74
2021/03/14 02:24:26;;;;;;;5.43;2.60;;;;;;;6.89;57.91;98579.34;4859011;28;96837;-74
2021/03/14 02:27:06;;;;;;;5.27;2.50;;;;;;;6.82;58.28;98582.34;4874121;28;96952;-74
2021/03/14 02:29:35;;;;;;;7.50;4.27;;;;;;;6.76;58.56;98581.69;4858563;28;100977;-75
2021/03/14 02:32:05;;;;;;;7.67;3.40;;;;;;;6.86;58.17;98592.53;4858815;28;97467;-74
2021/03/14 02:34:34;;;;;;;5.63;2.83;;;;;;;6.84;58.24;98583.13;4859392;28;97316;-74
2021/03/14 02:37:00;;;;;;;7.53;3.07;;;;;;;6.79;58.68;98597.19;4858579;28;97156;-74
2021/03/14 02:39:27;;;;;;;6.83;3.37;;;;;;;6.79;58.65;98593.75;4842720;28;101484;-74
2021/03/14 02:41:55;;;;;;;7.60;3.07;;;;;;;6.87;58.52;98598.63;4867670;28;97473;-74
2021/03/14 02:44:25;;;;;;;10.70;3.53;;;;;;;6.80;58.50;98601.50;4858941;28;97186;-74
2021/03/14 02:46:51;;;;;;;13.97;5.87;;;;;;;6.84;58.12;98602.22;4858217;28;96882;-74
2021/03/14 02:49:21;;;;;;;14.27;4.40;;;;;;;6.85;58.57;98598.69;4861178;28;101022;-74
2021/03/14 02:51:48;;;;;;;10.00;4.70;;;;;;;6.85;57.98;98600.44;4871250;28;101285;-74
2021/03/14 02:54:15;;;;;;;7.40;3.67;;;;;;;6.85;58.14;98611.72;4868066;28;97072;-74
2021/03/14 02:56:43;;;;;;;10.00;3.70;;;;;;;6.80;57.88;98605.88;4858767;28;97111;-79
2021/03/14 02:59:08;;;;;;;11.30;4.73;;;;;;;6.82;58.05;98601.44;4858455;28;98185;-73
2021/03/14 03:01:34;;;;;;;11.67;4.53;;;;;;;6.78;58.10;98607.72;4874221;28;98295;-74
2021/03/14 03:04:01;;;;;;;12.00;4.57;;;;;;;6.76;58.31;98614.75;4857873;28;96743;-73
2021/03/14 03:06:28;;;;;;;11.30;5.10;;;;;;;6.84;57.56;98612.66;4859179;28;96846;-73
2021/03/14 03:08:55;;;;;;;15.07;5.17;;;;;;;6.73;57.77;98615.75;4857608;28;101361;-73
2021/03/14 03:11:21;;;;;;;16.20;5.80;;;;;;;6.72;57.64;98610.56;4858185;28;98019;-73
2021/03/14 03:13:47;;;;;;;10.33;3.93;;;;;;;6.73;57.98;98618.34;4857597;28;96593;-73
2021/03/14 03:16:15;;;;;;;5.53;2.23;;;;;;;6.66;58.47;98611.72;4873922;28;97119;-73
2021/03/14 03:18:41;;;;;;;6.80;2.50;;;;;;;6.67;58.04;98615.19;4880229;28;97435;-74
2021/03/14 03:21:09;;;;;;;8.00;3.27;;;;;;;6.64;57.63;98616.16;4892361;28;97931;-73
2021/03/14 03:23:35;;;;;;;9.03;3.30;;;;;;;6.70;57.93;98612.44;4877492;28;97007;-73
2021/03/14 03:26:01;;;;;;;7.17;2.47;;;;;;;6.65;57.93;98614.41;4877121;28;96900;-73
2021/03/14 03:28:26;;;;;;;8.37;3.13;;;;;;;6.70;57.72;98620.25;4893236;28;97861;-73
2021/03/14 03:30:54;;;;;;;6.27;3.10;;;;;;;6.71;57.77;98611.50;4876534;28;97311;-73
2021/03/14 03:33:19;;;;;;;7.27;2.60;;;;;;;6.67;57.26;98613.41;4893491;28;96954;-73
2021/03/14 03:35:45;;;;;;;5.90;2.53;;;;;;;6.67;57.61;98612.56;4876898;28;97154;-77
2021/03/14 03:38:11;;;;;;;5.20;2.07;;;;;;;6.75;57.50;98611.31;4876921;28;97846;-72
2021/03/14 03:40:36;;;;;;;5.23;2.80;;;;;;;6.74;57.07;98614.81;4876505;28;101024;-75
2021/03/14 03:43:08;;;;;;;5.40;1.70;;;;;;;6.73;57.50;98615.75;4892813;28;97161;-76
2021/03/14 03:45:37;;;;;;;8.07;3.15;;;;;;;6.68;57.36;98615.09;4894726;28;97389;-73
2021/03/14 03:48:05;;;;;;;4.37;2.40;;;;;;;6.71;57.65;98607.13;4876317;28;97784;-76
2021/03/14 03:50:31;;;;;;;4.63;2.33;;;;;;;6.64;57.18;98602.28;4892476;28;97905;-75
2021/03/14 03:52:56;;;;;;;5.40;2.30;;;;;;;6.67;57.10;98600.38;4852607;28;97304;-75
2021/03/14 03:55:23;;;;;;;7.10;2.10;;;;;;;6.73;57.08;98599.25;4847369;28;97408;-72
2021/03/14 03:57:49;;;;;;;4.97;2.30;;;;;;;6.66;56.99;98597.81;4881557;28;97281;-75
2021/03/14 04:00:17;;;;;;;6.03;2.37;;;;;;;6.67;57.66;98591.72;4876614;28;97369;-73
2021/03/14 04:02:43;;;;;;;5.47;2.47;;;;;;;6.62;57.46;98596.28;4892764;28;97174;-77
2021/03/14 04:05:10;;;;;;;6.43;2.30;;;;;;;6.62;57.45;98599.72;4880178;28;97484;-73
2021/03/14 04:07:38;;;;;;;6.17;2.10;;;;;;;6.58;57.65;98585.16;4880145;28;97513;-73
2021/03/14 04:10:09;;;;;;;3.93;2.00;;;;;;;6.64;57.42;98595.31;4862894;28;100784;-73
2021/03/14 04:12:37;;;;;;;2.95;1.70;;;;;;;6.62;57.56;98596.28;4864584;28;96988;-73
2021/03/14 04:15:04;;;;;;;4.27;1.63;;;;;;;6.58;57.38;98598.19;4879124;28;97351;-74
2021/03/14 04:17:30;;;;;;;6.37;2.50;;;;;;;6.53;57.62;98605.38;4864210;28;101144;-73
2021/03/14 04:19:56;;;;;;;7.73;2.97;;;;;;;6.49;57.49;98611.63;4863289;28;100655;-73
2021/03/14 04:22:23;;;;;;;6.20;2.83;;;;;;;6.55;57.42;98617.41;4896235;28;96670;-73
2021/03/14 04:24:49;;;;;;;6.17;3.30;;;;;;;6.50;57.82;98621.97;4863482;28;96836;-73
2021/03/14 04:27:16;;;;;;;8.43;3.73;;;;;;;6.55;57.62;98607.00;4879236;28;100849;-73
2021/03/14 04:29:44;;;;;;;4.50;2.70;;;;;;;6.60;58.01;98600.72;4879358;28;98390;-73
2021/03/14 04:32:10;;;;;;;4.73;2.53;;;;;;;6.51;57.66;98609.78;4869525;28;96775;-74
2021/03/14 04:34:37;;;;;;;7.47;2.83;;;;;;;6.48;57.91;98605.56;4876696;28;96881;-74
2021/03/14 04:37:03;;;;;;;8.67;4.40;;;;;;;6.48;57.89;98592.53;4844326;28;100889;-75
2021/03/14 04:39:29;;;;;;;7.17;3.20;;;;;;;6.41;58.10;98596.31;4876380;28;97434;-73
2021/03/14 04:41:55;;;;;;;8.17;3.30;;;;;;;6.41;58.35;98598.94;4876390;28;96933;-74
2021/03/14 04:44:21;;;;;;;8.00;3.67;;;;;;;6.40;58.22;98599.88;4852080;28;96935;-73
2021/03/14 04:46:47;;;;;;;7.50;3.20;;;;;;;6.45;58.16;98604.84;4894917;28;97456;-79
2021/03/14 04:49:13;;;;;;;7.67;3.47;;;;;;;6.39;58.72;98611.19;4879252;28;97436;-73
2021/03/14 04:51:43;;;;;;;7.40;3.63;;;;;;;6.41;58.47;98609.38;4895205;28;96991;-73
2021/03/14 04:54:10;;;;;;;5.43;2.47;;;;;;;6.41;58.75;98598.94;4859106;28;96923;-73
2021/03/14 04:56:37;;;;;;;5.27;2.13;;;;;;;6.40;58.43;98615.50;4871728;28;99403;-74
2021/03/14 04:59:03;;;;;;;5.60;2.57;;;;;;;6.30;58.55;98609.81;4894063;28;98074;-74
2021/03/14 05:01:30;;;;;;;5.43;2.27;;;;;;;6.34;58.90;98620.94;4863887;28;96757;-74
2021/03/14 05:03:57;;;;;;;4.27;2.07;;;;;;;6.35;58.91;98618.28;4878639;28;96890;-73
2021/03/14 05:06:24;;;;;;;9.70;2.73;;;;;;;6.35;58.75;98622.66;4883712;28;98146;-73
2021/03/14 05:08:50;;;;;;;5.97;1.90;;;;;;;6.38;58.79;98624.28;4859539;28;101765;-74
2021/03/14 05:11:20;;;;;;;4.27;2.53;;;;;;;6.32;58.80;98641.03;4876053;28;97043;-73
2021/03/14 05:13:47;;;;;;;6.37;2.43;;;;;;;6.34;58.51;98641.81;4859866;28;96967;-79
2021/03/14 05:16:13;;;;;;;4.63;2.07;;;;;;;6.32;58.46;98630.63;4858098;28;101533;-73
2021/03/14 05:18:39;;;;;;;6.47;2.30;;;;;;;6.28;59.09;98639.47;4882550;28;97162;-73
2021/03/14 05:21:05;;;;;;;4.23;2.40;;;;;;;6.23;59.07;98641.44;4878095;28;96742;-73
2021/03/14 05:23:32;;;;;;;5.27;2.10;;;;;;;6.23;59.15;98657.09;4879311;28;96779;-73
2021/03/14 05:25:59;;;;;;;6.13;2.50;;;;;;;6.18;58.89;98657.25;4862446;28;101500;-73
2021/03/14 05:28:25;;;;;;;5.63;2.03;;;;;;;6.10;59.03;98654.97;4878752;28;101293;-73
2021/03/14 05:30:51;;;;;;;6.90;3.20;;;;;;;6.07;59.54;98665.53;4878099;28;96645;-74
2021/03/14 05:33:16;;;;;;;10.20;3.90;;;;;;;6.00;59.41;98669.31;4872854;28;97316;-73
2021/03/14 05:35:42;;;;;;;6.83;3.50;;;;;;;6.04;59.59;98672.63;4875628;28;97941;-75
2021/03/14 05:38:08;;;;;;;13.20;7.07;;;;;;;5.97;59.62;98664.22;4852999;29;98450;-73
2021/03/14 05:40:33;;;;;;;21.63;10.97;;;;;;;6.02;59.35;98659.69;4881514;28;96644;-76
2021/03/14 05:42:59;;;;;;;21.10;10.07;;;;;;;5.97;59.14;98664.22;4878451;28;96860;-77
2021/03/14 05:45:25;;;;;;;14.00;6.20;;;;;;;5.94;59.36;98659.16;4862753;28;101049;-76
2021/03/14 05:47:51;;;;;;;12.37;5.07;;;;;;;5.98;59.38;98672.88;4861959;28;101190;-74
2021/03/14 05:50:25;;;;;;;8.97;3.87;;;;;;;6.17;59.06;98672.94;4878357;28;97066;-73
2021/03/14 05:52:51;;;;;;;5.97;2.70;;;;;;;6.46;58.57;98666.53;4871013;28;96681;-74
2021/03/14 05:55:22;;;;;;;6.20;2.40;;;;;;;6.60;57.71;98673.72;4864486;28;100896;-73
2021/03/14 05:57:50;;;;;;;6.13;2.20;;;;;;;6.62;57.65;98662.31;4859344;28;101228;-77
2021/03/14 06:00:28;;;;;;;6.70;2.63;;;;;;;6.63;57.62;98663.16;4875292;28;96686;-73
2021/03/14 06:03:02;;;;;;;5.13;2.33;;;;;;;6.90;56.92;98664.53;4860670;28;96817;-74
2021/03/14 06:05:30;;;;;;;5.23;2.47;;;;;;;7.41;55.83;98651.75;4859453;28;98008;-73
2021/03/14 06:07:57;;;;;;;5.30;2.30;;;;;;;7.93;54.28;98654.44;4858594;28;101704;-74
2021/03/14 06:10:22;;;;;;;7.17;2.43;;;;;;;8.48;53.43;98659.50;4859033;28;97287;-73
2021/03/14 06:12:48;;;;;;;7.07;2.03;;;;;;;8.97;52.08;98670.00;4859214;28;96949;-78
2021/03/14 06:15:15;;;;;;;6.03;2.50;;;;;;;9.33;51.08;98674.16;4858224;28;99974;-73
2021/03/14 06:17:40;;;;;;;6.70;2.30;;;;;;;9.65;50.48;98674.16;4859116;28;100623;-74
2021/03/14 06:20:08;;;;;;;7.55;2.88;;;;;;;10.09;49.17;98671.59;4854788;28;97113;-74
2021/03/14 06:22:33;;;;;;;5.70;2.47;;;;;;;10.30;48.63;98677.44;4883691;28;97001;-73
2021/03/14 06:24:59;;;;;;;6.47;2.80;;;;;;;10.59;47.82;98677.47;4881005;28;101378;-74
2021/03/14 06:27:30;;;;;;;11.25;3.05;;;;;;;10.88;47.16;98692.31;4853140;28;100754;-74
2021/03/14 06:29:55;;;;;;;5.28;2.47;;;;;;;11.26;46.49;98693.50;4882944;28;96829;-74
2021/03/14 06:32:21;;;;;;;5.85;2.78;;;;;;;11.45;46.24;98693.19;4858273;28;96826;-73
2021/03/14 06:34:47;;;;;;;5.00;2.45;;;;;;;11.61;45.44;98700.94;4881023;28;101046;-73
2021/03/14 06:37:15;;;;;;;5.72;2.50;;;;;;;11.87;44.79;98688.75;4856844;28;101889;-74
2021/03/14 06:39:46;;;;;;;4.40;2.30;;;;;;;12.49;43.73;98694.28;4883250;28;97111;-73
2021/03/14 06:42:34;;;;;;;8.23;3.03;;;;;;;12.98;42.84;98680.38;4881715;28;97279;-75
2021/03/14 06:45:02;;;;;;;6.22;2.55;;;;;;;13.44;41.83;98687.72;4838315;28;101685;-74
2021/03/14 06:47:42;;;;;;;5.63;2.50;;;;;;;13.80;41.15;98688.63;4870481;28;97987;-74
2021/03/14 06:50:11;;;;;;;8.25;2.47;;;;;;;14.10;40.83;98680.22;4855084;28;96859;-74
2021/03/14 06:52:37;;;;;;;5.40;2.85;;;;;;;14.98;39.40;98678.88;4851411;28;97006;-74
2021/03/14 06:55:04;;;;;;;6.60;2.83;;;;;;;15.79;38.28;98670.63;4865309;28;101392;-75
2021/03/14 06:57:29;;;;;;;6.18;2.90;;;;;;;16.94;36.84;98665.47;4871304;28;101596;-74
2021/03/14 06:59:59;;;;;;;6.70;3.30;;;;;;;19.77;32.44;98661.59;4874115;28;96750;-74
2021/03/14 07:02:26;;;;;;;6.82;3.17;;;;;;;21.86;29.27;98665.91;4871432;28;97929;-74
2021/03/14 07:04:57;;;;;;;5.22;2.92;;;;;;;23.46;27.29;98667.06;4854543;28;101342;-76
2021/03/14 07:07:31;;;;;;;6.40;2.70;;;;;;;23.24;26.71;98672.19;4859243;28;97375;-72
2021/03/14 07:10:00;;;;;;;4.78;2.78;;;;;;;24.53;25.54;98680.66;4870375;28;96802;-72
2021/03/14 07:12:31;;;;;;;4.38;2.20;;;;;;;24.52;25.60;98681.66;4857928;28;97135;-72
2021/03/14 07:14:57;;;;;;;4.90;2.25;;;;;;;24.58;24.84;98702.38;4863640;28;98091;-71
2021/03/14 07:17:33;;;;;;;2.83;1.90;;;;;;;24.06;24.45;98713.81;4876545;28;97859;-72
2021/03/14 07:20:01;;;;;;;3.95;2.13;;;;;;;24.60;24.11;98706.53;4873003;28;97191;-72
2021/03/14 07:22:26;;;;;;;4.70;2.65;;;;;;;24.93;23.74;98708.09;4841717;28;97126;-71
2021/03/14 07:24:52;;;;;;;4.55;2.78;;;;;;;23.53;25.27;98723.44;4857380;28;100985;-76
2021/03/14 07:27:31;;;;;;;3.45;2.10;;;;;;;21.82;26.91;98722.50;4874240;28;97308;-71
2021/03/14 07:30:00;;;;;;;3.42;1.92;;;;;;;19.65;29.03;98738.97;4873324;28;96726;-72
2021/03/14 07:32:26;;;;;;;5.80;1.98;;;;;;;19.74;29.18;98758.56;4874312;28;97033;-73
2021/03/14 07:34:52;;;;;;;6.80;2.63;;;;;;;20.21;28.24;98758.38;4873745;28;98138;-72
2021/03/14 07:37:19;;;;;;;4.88;1.90;;;;;;;20.86;26.96;98760.00;4858048;28;97842;-73
2021/03/14 07:39:47;;;;;;;2.40;1.70;;;;;;;20.68;27.49;98770.66;4877931;28;97150;-72
2021/03/14 07:42:18;;;;;;;5.05;1.73;;;;;;;17.41;31.34;98795.72;4860655;28;97559;-72
2021/03/14 07:44:44;;;;;;;3.80;1.77;;;;;;;15.55;33.68;98802.16;4871226;28;98134;-72
2021/03/14 07:47:12;;;;;;;5.07;1.80;;;;;;;13.96;34.92;98807.03;4876679;28;97429;-72
2021/03/14 07:49:37;;;;;;;2.92;1.50;;;;;;;13.57;36.50;98819.47;4875575;28;97368;-72
2021/03/14 07:52:05;;;;;;;3.35;1.42;;;;;;;13.63;36.73;98824.31;4876464;28;96979;-74
2021/03/14 07:54:40;;;;;;;2.90;1.63;;;;;;;14.00;35.86;98821.72;4857710;28;101260;-72
2021/03/14 07:57:06;;;;;;;4.97;1.60;;;;;;;15.81;33.65;98822.16;4858756;28;101187;-72
2021/03/14 07:59:33;;;;;;;3.70;1.58;;;;;;;15.09;34.81;98826.88;4875178;28;96749;-73
2021/03/14 08:02:31;;;;;;;5.88;3.05;;;;;;;14.02;35.77;98811.88;4861095;28;96825;-72
2021/03/14 08:05:01;;;;;;;3.92;1.90;;;;;;;13.99;36.33;98822.63;4868366;28;98634;-72
2021/03/14 08:07:46;;;;;;;6.43;2.35;;;;;;;13.58;38.63;98823.78;4843301;28;101625;-71
2021/03/14 08:10:32;;;;;;;3.15;1.50;;;;;;;13.02;37.79;98816.16;4843797;28;96738;-72
2021/03/14 08:12:58;;;;;;;5.07;2.17;;;;;;;13.03;38.26;98830.19;4860439;28;97258;-72
2021/03/14 08:15:26;;;;;;;4.55;1.50;;;;;;;12.45;38.59;98834.91;4855077;28;97684;-75
2021/03/14 08:17:55;;;;;;;8.10;1.35;;;;;;;11.95;39.20;98821.41;4883141;28;98109;-78
2021/03/14 08:20:44;;;;;;;5.55;1.48;;;;;;;13.15;37.34;98824.09;4858375;28;98333;-76
2021/03/14 08:23:16;;;;;;;3.85;1.63;;;;;;;13.25;37.68;98829.56;4859128;28;97592;-75
2021/03/14 08:25:44;;;;;;;5.22;1.88;;;;;;;13.84;37.30;98829.84;4870270;28;99623;-74
2021/03/14 08:28:23;;;;;;;2.70;1.30;;;;;;;18.78;30.67;98827.81;4862466;28;97860;-74
2021/03/14 08:31:05;;;;;;;6.28;1.90;;;;;;;20.49;28.42;98820.47;4875832;28;97132;-77
2021/03/14 08:33:44;;;;;;;2.22;1.30;;;;;;;16.22;32.88;98844.47;4845640;28;97269;-73
2021/03/14 08:36:44;;;;;;;4.38;1.30;;;;;;;14.73;34.96;98841.91;4890464;28;97719;-73
2021/03/14 08:39:36;;;;;;;3.08;1.40;;;;;;;14.08;35.77;98848.38;4836902;28;100936;-73
2021/03/14 08:42:12;;;;;;;6.15;1.38;;;;;;;14.84;34.71;98862.25;4859904;28;96867;-73
2021/03/14 08:44:46;;;;;;;2.58;1.23;;;;;;;13.92;36.37;98860.97;4855021;28;97000;-73
2021/03/14 08:47:33;;;;;;;4.85;1.65;;;;;;;12.91;36.83;98874.00;4862655;28;101897;-73
2021/03/14 08:50:03;;;;;;;3.65;1.17;;;;;;;12.64;38.12;98879.28;4849460;28;98149;-74
2021/03/14 08:52:39;;;;;;;4.93;1.27;;;;;;;12.28;38.66;98887.78;4873925;28;96772;-74
2021/03/14 08:55:23;;;;;;;3.97;1.58;;;;;;;11.90;39.47;98891.03;4860507;28;97571;-73
2021/03/14 08:57:49;;;;;;;5.05;1.48;;;;;;;11.84;40.00;98901.88;4844994;28;101185;-73
2021/03/14 09:00:15;;;;;;;4.97;1.65;;;;;;;11.73;39.82;98906.03;4862212;28;100815;-72
2021/03/14 09:02:56;;;;;;;6.57;1.63;;;;;;;11.31;40.87;98907.69;4861691;28;97737;-76
2021/03/14 09:05:34;;;;;;;2.05;1.20;;;;;;;11.04;41.15;98910.13;4866559;28;97871;-73
2021/03/14 09:08:02;;;;;;;5.22;1.60;;;;;;;10.93;41.48;98907.28;4855124;28;98265;-72
2021/03/14 09:10:38;;;;;;;3.20;1.42;;;;;;;10.79;41.74;98913.34;4878048;28;101099;-73
2021/03/14 09:13:30;;;;;;;4.22;1.70;;;;;;;10.81;42.35;98927.22;4876429;28;97332;-75
2021/03/14 09:16:06;;;;;;;3.45;1.50;;;;;;;10.64;42.49;98920.28;4852441;28;96888;-75
2021/03/14 09:18:51;;;;;;;3.20;1.58;;;;;;;10.75;43.02;98927.56;4860025;28;102032;-76
2021/03/14 09:21:19;;;;;;;4.13;1.73;;;;;;;10.67;42.92;98931.56;4873319;28;101025;-74
2021/03/14 09:23:51;;;;;;;4.25;1.48;;;;;;;10.50;43.15;98935.13;4869938;28;97160;-75
2021/03/14 09:26:28;;;;;;;3.42;1.63;;;;;;;10.20;43.57;98930.59;4875095;28;97194;-75
2021/03/14 09:29:00;;;;;;;4.13;1.55;;;;;;;10.12;43.79;98935.41;4856047;28;101551;-76
2021/03/14 09:31:28;;;;;;;6.32;1.65;;;;;;;10.18;43.81;98938.56;4858307;28;101553;-74
2021/03/14 09:34:02;;;;;;;4.55;1.85;;;;;;;10.15;44.68;98937.88;4858974;28;97186;-76
2021/03/14 09:36:49;;;;;;;6.95;1.85;;;;;;;10.23;44.46;98933.06;4889254;28;97111;-75
2021/03/14 09:39:23;;;;;;;4.85;2.00;;;;;;;10.23;44.66;98934.84;4864682;28;101714;-74
2021/03/14 09:42:20;;;;;;;5.25;1.83;;;;;;;10.43;44.29;98929.38;4860198;28;99762;-75
2021/03/14 09:45:36;;;;;;;3.75;1.85;;;;;;;10.33;44.51;98934.28;4872193;28;97363;-74
2021/03/14 09:48:06;;;;;;;5.07;2.17;;;;;;;10.09;44.48;98941.66;4868797;28;96927;-76
2021/03/14 09:50:42;;;;;;;4.03;1.85;;;;;;;10.02;44.17;98942.94;4888554;28;101354;-75
2021/03/14 09:53:10;;;;;;;2.17;1.25;;;;;;;10.01;44.31;98938.63;4860977;28;100944;-75
2021/03/14 09:55:38;;;;;;;5.57;1.27;;;;;;;9.99;44.78;98935.22;4855089;28;97163;-75
2021/03/14 09:58:08;;;;;;;5.78;1.50;;;;;;;10.07;45.08;98937.44;4873330;28;96943;-75
2021/03/14 10:00:34;;;;;;;6.05;1.83;;;;;;;10.11;45.01;98921.47;4856684;28;101611;-75
2021/03/14 10:03:06;;;;;;;4.07;1.70;;;;;;;9.89;45.46;98937.50;4872920;28;99130;-75
2021/03/14 10:05:50;;;;;;;3.83;1.67;;;;;;;9.92;45.70;98936.50;4871771;28;97228;-75
2021/03/14 10:08:25;;;;;;;4.65;1.67;;;;;;;9.97;44.92;98926.59;4858380;28;96760;-75
2021/03/14 10:10:56;;;;;;;2.53;1.50;;;;;;;10.41;44.60;98939.97;4857508;28;101317;-75
2021/03/14 10:13:25;;;;;;;5.45;1.52;;;;;;;10.77;43.71;98922.25;4858045;28;100021;-74
2021/03/14 10:15:51;;;;;;;4.38;1.45;;;;;;;11.26;43.68;98933.38;4857337;28;97136;-74
2021/03/14 10:18:22;;;;;;;4.03;1.40;;;;;;;11.50;43.23;98924.97;4861451;28;97271;-74
2021/03/14 10:20:49;;;;;;;4.18;1.80;;;;;;;11.83;43.19;98929.13;4860023;28;101333;-74
2021/03/14 10:23:23;;;;;;;6.18;3.38;;;;;;;11.80;43.06;98935.41;4861697;28;99621;-75
2021/03/14 10:26:08;;;;;;;;;;;;;;;11.98;42.65;98936.09;4864761;28;97413;-75
2021/03/14 10:28:52;;;;;;;6.03;2.10;;;;;;;12.08;42.77;98942.50;4878866;28;97385;-75
2021/03/14 10:31:33;;;;;;;4.95;2.10;;;;;;;12.17;42.32;98944.53;4872221;28;100989;-74
2021/03/14 10:34:01;;;;;;;5.40;1.70;;;;;;;12.06;41.88;98930.38;4843943;28;101011;-75
2021/03/14 10:36:34;;;;;;;3.80;2.08;;;;;;;12.21;42.14;98919.72;4861181;28;97004;-74
2021/03/14 10:39:05;;;;;;;4.13;1.48;;;;;;;12.06;42.36;98914.59;4846310;28;97257;-76
2021/03/14 10:41:43;;;;;;;5.25;1.60;;;;;;;11.97;42.67;98929.16;4859239;28;101402;-75
2021/03/14 10:44:11;;;;;;;5.10;2.03;;;;;;;12.23;43.01;98938.06;4860037;28;101329;-75
2021/03/14 10:46:51;;;;;;;5.72;1.40;;;;;;;12.22;42.96;98925.84;4862561;28;96974;-75
2021/03/14 10:49:29;;;;;;;2.75;1.70;;;;;;;11.99;43.04;98932.53;4859899;28;97315;-75
2021/03/14 10:52:00;;;;;;;6.00;1.50;;;;;;;11.97;43.49;98943.16;4885687;28;101878;-74
2021/03/14 10:54:46;;;;;;;4.00;1.70;;;;;;;12.20;43.23;98946.13;4857484;28;102095;-75
2021/03/14 10:57:24;;;;;;;3.80;1.30;;;;;;;12.24;43.08;98945.84;4875823;28;97061;-75
2021/03/14 11:00:25;;;;;;;3.60;1.80;;;;;;;11.70;44.53;98957.94;4856483;28;97077;-77
2021/03/14 11:02:56;;;;;;;7.03;2.22;;;;;;;11.45;45.94;98956.75;4873161;28;100852;-75
2021/03/14 11:05:28;;;;;;;3.97;1.80;;;;;;;11.14;46.42;98983.13;4854866;28;99612;-75
2021/03/14 11:08:00;;;;;;;3.60;1.80;;;;;;;10.95;47.16;98992.06;4851772;28;97218;-79
2021/03/14 11:10:39;;;;;;;1.90;1.65;;;;;;;10.84;46.98;98997.91;4864905;28;96999;-75
2021/03/14 11:13:17;;;;;;;3.15;1.60;;;;;;;10.84;47.68;98981.31;4876291;28;101917;-74
2021/03/14 11:16:08;;;;;;;1.88;1.33;;;;;;;10.96;47.75;98992.91;4876590;28;101789;-79
2021/03/14 11:18:58;;;;;;;2.92;1.60;;;;;;;11.02;46.98;98998.66;4877662;28;97198;-74
2021/03/14 11:21:37;;;;;;;4.22;1.38;;;;;;;11.20;47.41;99003.78;4891660;28;97346;-75
2021/03/14 11:24:03;;;;;;;3.40;1.30;;;;;;;11.53;46.81;99027.28;4858611;28;101390;-76
2021/03/14 11:26:36;;;;;;;1.52;1.13;;;;;;;11.46;46.44;99023.31;4859216;28;101173;-75
2021/03/14 11:29:02;;;;;;;2.65;1.50;;;;;;;11.23;46.86;99012.38;4871804;28;96673;-75
2021/03/14 11:31:37;;;;;;;2.97;1.50;;;;;;;10.79;47.83;99020.97;4885700;28;97130;-74
2021/03/14 11:34:07;;;;;;;4.40;1.75;;;;;;;10.75;47.95;99032.56;4857895;28;101115;-76
2021/03/14 11:36:40;;;;;;;2.83;1.35;;;;;;;10.59;47.14;99014.19;4862211;28;100168;-75
2021/03/14 11:39:20;;;;;;;4.57;1.42;;;;;;;10.19;48.71;99034.66;4859447;28;97103;-76
2021/03/14 11:41:55;;;;;;;5.10;1.27;;;;;;;10.32;48.20;99031.41;4874245;28;97073;-78
2021/03/14 11:44:40;;;;;;;3.78;1.52;;;;;;;10.22;48.56;99024.94;4863574;28;97867;-75
2021/03/14 11:47:06;;;;;;;3.67;1.60;;;;;;;10.17;48.84;99030.41;4857565;28;101571;-75
2021/03/14 11:49:39;;;;;;;2.42;1.30;;;;;;;10.01;49.58;99032.16;4858630;28;96685;-75
2021/03/14 11:52:05;;;;;;;3.97;2.10;;;;;;;9.88;48.93;99037.19;4857044;28;96943;-76